sensor_id;sensor_type;location;lat;lon;timestamp;pressure;altitude;pressure_sealevel;temperature;humidity
8717;BME280;4395;48.554;8.820;2023-05-19T00:01:50;96316.50;;;11.40;100.00
8717;BME280;4395;48.554;8.820;2023-05-19T00:03:55;96248.91;;;10.81;100.00
8717;BME280;4395;48.554;8.820;2023-05-19T00:06:00;96310.22;;;11.34;100.00
8717;BME280;4395;48.554;8.820;2023-05-19T00:08:04;96317.91;;;11.25;100.00
8717;BME280;4395;48.554;8.820;2023-05-19T00:10:08;96317.34;;;11.23;100.00
8717;BME280;4395;48.554;8.820;2023-05-19T00:12:12;96307.00;;;11.15;100.00
8717;BME280;4395;48.554;8.820;2023-05-19T00:14:15;96129.63;;;9.86;100.00
8717;BME280;4395;48.554;8.820;2023-05-19T00:16:20;96303.00;;;11.01;100.00
8717;BME280;4395;48.554;8.820;2023-05-19T00:18:24;96283.94;;;10.86;100.00
8717;BME280;4395;48.554;8.820;2023-05-19T00:20:27;96304.22;;;11.10;100.00
8717;BME280;4395;48.554;8.820;2023-05-19T00:22:29;96235.06;;;10.72;100.00
8717;BME280;4395;48.554;8.820;2023-05-19T00:24:32;96311.88;;;11.02;100.00
8717;BME280;4395;48.554;8.820;2023-05-19T00:26:35;96308.06;;;11.14;100.00
8717;BME280;4395;48.554;8.820;2023-05-19T00:28:40;96307.63;;;11.22;100.00
8717;BME280;4395;48.554;8.820;2023-05-19T00:30:43;96303.22;;;11.33;99.61
8717;BME280;4395;48.554;8.820;2023-05-19T00:32:47;96312.75;;;11.41;100.00
8717;BME280;4395;48.554;8.820;2023-05-19T00:34:51;96253.75;;;11.17;99.13
8717;BME280;4395;48.554;8.820;2023-05-19T00:36:54;96241.50;;;11.26;98.01
8717;BME280;4395;48.554;8.820;2023-05-19T00:38:57;96305.38;;;11.53;98.28
8717;BME280;4395;48.554;8.820;2023-05-19T00:41:00;96296.91;;;11.44;98.07
8717;BME280;4395;48.554;8.820;2023-05-19T00:43:03;96299.31;;;11.24;99.82
8717;BME280;4395;48.554;8.820;2023-05-19T00:45:09;96284.41;;;11.16;100.00
8717;BME280;4395;48.554;8.820;2023-05-19T00:47:12;96302.91;;;10.96;100.00
8717;BME280;4395;48.554;8.820;2023-05-19T00:49:16;96289.81;;;10.83;100.00
8717;BME280;4395;48.554;8.820;2023-05-19T00:51:19;96303.16;;;10.78;100.00
8717;BME280;4395;48.554;8.820;2023-05-19T00:53:22;96292.50;;;10.83;100.00
8717;BME280;4395;48.554;8.820;2023-05-19T00:55:27;96288.91;;;10.77;100.00
8717;BME280;4395;48.554;8.820;2023-05-19T00:57:30;96284.09;;;10.79;100.00
8717;BME280;4395;48.554;8.820;2023-05-19T00:59:34;96216.66;;;10.47;100.00
8717;BME280;4395;48.554;8.820;2023-05-19T01:01:37;96107.50;;;9.96;100.00
8717;BME280;4395;48.554;8.820;2023-05-19T01:03:40;96285.31;;;10.88;100.00
8717;BME280;4395;48.554;8.820;2023-05-19T01:05:46;96292.66;;;10.76;100.00
8717;BME280;4395;48.554;8.820;2023-05-19T01:07:50;96243.31;;;10.37;100.00
8717;BME280;4395;48.554;8.820;2023-05-19T01:09:54;96287.75;;;10.56;100.00
8717;BME280;4395;48.554;8.820;2023-05-19T01:11:57;96285.16;;;10.33;100.00
8717;BME280;4395;48.554;8.820;2023-05-19T01:14:01;96291.63;;;10.20;100.00
8717;BME280;4395;48.554;8.820;2023-05-19T01:16:07;96285.78;;;10.23;100.00
8717;BME280;4395;48.554;8.820;2023-05-19T01:18:14;96285.25;;;10.38;100.00
8717;BME280;4395;48.554;8.820;2023-05-19T01:20:24;96291.50;;;10.55;100.00
8717;BME280;4395;48.554;8.820;2023-05-19T01:22:56;96296.28;;;10.53;100.00
8717;BME280;4395;48.554;8.820;2023-05-19T01:25:41;96275.31;;;10.39;100.00
8717;BME280;4395;48.554;8.820;2023-05-19T01:30:29;96301.16;;;9.99;100.00
8717;BME280;4395;48.554;8.820;2023-05-19T01:32:36;96292.38;;;10.04;100.00
8717;BME280;4395;48.554;8.820;2023-05-19T01:34:44;96290.91;;;10.25;100.00
8717;BME280;4395;48.554;8.820;2023-05-19T01:36:48;96292.16;;;10.34;100.00
8717;BME280;4395;48.554;8.820;2023-05-19T01:38:54;96232.72;;;9.74;100.00
8717;BME280;4395;48.554;8.820;2023-05-19T01:40:58;96290.81;;;10.20;100.00
8717;BME280;4395;48.554;8.820;2023-05-19T01:43:02;96278.91;;;10.16;100.00
8717;BME280;4395;48.554;8.820;2023-05-19T01:45:06;96269.91;;;10.22;100.00
8717;BME280;4395;48.554;8.820;2023-05-19T01:47:12;96286.59;;;10.24;100.00
8717;BME280;4395;48.554;8.820;2023-05-19T01:49:16;96291.09;;;10.35;100.00
8717;BME280;4395;48.554;8.820;2023-05-19T01:51:19;96280.56;;;10.45;100.00
8717;BME280;4395;48.554;8.820;2023-05-19T01:53:22;96296.59;;;10.40;100.00
8717;BME280;4395;48.554;8.820;2023-05-19T01:55:25;96284.56;;;10.43;100.00
8717;BME280;4395;48.554;8.820;2023-05-19T01:57:35;96233.94;;;9.94;100.00
8717;BME280;4395;48.554;8.820;2023-05-19T01:59:50;96286.88;;;10.11;100.00
8717;BME280;4395;48.554;8.820;2023-05-19T02:01:56;96228.38;;;9.44;100.00
8717;BME280;4395;48.554;8.820;2023-05-19T02:04:14;96293.66;;;10.02;100.00
8717;BME280;4395;48.554;8.820;2023-05-19T02:06:29;96287.88;;;9.93;100.00
8717;BME280;4395;48.554;8.820;2023-05-19T02:08:41;96265.75;;;9.74;100.00
8717;BME280;4395;48.554;8.820;2023-05-19T02:10:50;96289.94;;;10.03;100.00
8717;BME280;4395;48.554;8.820;2023-05-19T02:12:59;96224.03;;;9.55;100.00
8717;BME280;4395;48.554;8.820;2023-05-19T02:15:05;96286.38;;;10.14;100.00
8717;BME280;4395;48.554;8.820;2023-05-19T02:17:10;96289.72;;;9.92;100.00
8717;BME280;4395;48.554;8.820;2023-05-19T02:19:22;96243.75;;;9.49;100.00
8717;BME280;4395;48.554;8.820;2023-05-19T02:21:28;96283.69;;;9.85;100.00
8717;BME280;4395;48.554;8.820;2023-05-19T02:23:31;96285.34;;;9.75;100.00
8717;BME280;4395;48.554;8.820;2023-05-19T02:25:34;96292.91;;;9.89;100.00
8717;BME280;4395;48.554;8.820;2023-05-19T02:27:37;96284.97;;;9.83;100.00
8717;BME280;4395;48.554;8.820;2023-05-19T02:29:40;96294.41;;;9.85;100.00
8717;BME280;4395;48.554;8.820;2023-05-19T02:31:44;96288.28;;;9.61;100.00
8717;BME280;4395;48.554;8.820;2023-05-19T02:33:47;96285.16;;;9.53;100.00
8717;BME280;4395;48.554;8.820;2023-05-19T02:35:51;96272.06;;;9.68;100.00
8717;BME280;4395;48.554;8.820;2023-05-19T02:37:54;96255.59;;;9.76;100.00
8717;BME280;4395;48.554;8.820;2023-05-19T02:39:57;96277.03;;;9.88;100.00
8717;BME280;4395;48.554;8.820;2023-05-19T02:42:00;96277.78;;;9.72;100.00
8717;BME280;4395;48.554;8.820;2023-05-19T02:44:03;96276.28;;;9.64;100.00
8717;BME280;4395;48.554;8.820;2023-05-19T02:46:07;96276.34;;;9.81;100.00
8717;BME280;4395;48.554;8.820;2023-05-19T02:48:10;96276.09;;;9.82;100.00
8717;BME280;4395;48.554;8.820;2023-05-19T02:50:13;96267.91;;;9.89;100.00
8717;BME280;4395;48.554;8.820;2023-05-19T02:52:17;96273.81;;;10.03;100.00
8717;BME280;4395;48.554;8.820;2023-05-19T02:54:20;96274.47;;;9.81;100.00
8717;BME280;4395;48.554;8.820;2023-05-19T02:56:23;96270.75;;;9.82;100.00
8717;BME280;4395;48.554;8.820;2023-05-19T02:58:26;96268.22;;;9.64;100.00
8717;BME280;4395;48.554;8.820;2023-05-19T03:00:29;96272.75;;;9.75;100.00
8717;BME280;4395;48.554;8.820;2023-05-19T03:02:32;96262.38;;;9.67;100.00
8717;BME280;4395;48.554;8.820;2023-05-19T03:04:35;96273.22;;;9.72;100.00
8717;BME280;4395;48.554;8.820;2023-05-19T03:06:42;96273.31;;;9.77;100.00
8717;BME280;4395;48.554;8.820;2023-05-19T03:08:47;96282.63;;;9.86;100.00
8717;BME280;4395;48.554;8.820;2023-05-19T03:10:50;96269.88;;;9.93;100.00
8717;BME280;4395;48.554;8.820;2023-05-19T03:12:53;96260.78;;;9.94;100.00
8717;BME280;4395;48.554;8.820;2023-05-19T03:14:56;96271.41;;;9.89;100.00
8717;BME280;4395;48.554;8.820;2023-05-19T03:16:58;96268.41;;;9.86;100.00
8717;BME280;4395;48.554;8.820;2023-05-19T03:19:02;96277.34;;;9.91;100.00
8717;BME280;4395;48.554;8.820;2023-05-19T03:21:05;96262.22;;;9.85;100.00
8717;BME280;4395;48.554;8.820;2023-05-19T03:23:08;96273.63;;;9.92;100.00
8717;BME280;4395;48.554;8.820;2023-05-19T03:25:12;96274.78;;;9.96;100.00
8717;BME280;4395;48.554;8.820;2023-05-19T03:27:15;96271.59;;;9.71;100.00
8717;BME280;4395;48.554;8.820;2023-05-19T03:29:18;96277.91;;;9.65;100.00
8717;BME280;4395;48.554;8.820;2023-05-19T03:31:22;96276.88;;;9.54;100.00
8717;BME280;4395;48.554;8.820;2023-05-19T03:33:25;96278.63;;;9.49;100.00
8717;BME280;4395;48.554;8.820;2023-05-19T03:35:30;96281.84;;;9.74;100.00
8717;BME280;4395;48.554;8.820;2023-05-19T03:37:33;96256.44;;;9.65;100.00
8717;BME280;4395;48.554;8.820;2023-05-19T03:39:36;96287.22;;;9.74;100.00
8717;BME280;4395;48.554;8.820;2023-05-19T03:41:41;96285.31;;;9.86;100.00
8717;BME280;4395;48.554;8.820;2023-05-19T03:43:44;96287.41;;;9.84;100.00
8717;BME280;4395;48.554;8.820;2023-05-19T03:45:47;96271.34;;;9.73;100.00
8717;BME280;4395;48.554;8.820;2023-05-19T03:48:23;96286.06;;;9.70;100.00
8717;BME280;4395;48.554;8.820;2023-05-19T03:50:55;96288.63;;;9.65;100.00
8717;BME280;4395;48.554;8.820;2023-05-19T03:53:00;96284.13;;;9.54;100.00
8717;BME280;4395;48.554;8.820;2023-05-19T03:55:07;96290.91;;;9.45;100.00
8717;BME280;4395;48.554;8.820;2023-05-19T03:57:12;96292.19;;;9.30;100.00
8717;BME280;4395;48.554;8.820;2023-05-19T03:59:15;96291.25;;;9.37;100.00
8717;BME280;4395;48.554;8.820;2023-05-19T04:01:18;96284.94;;;9.43;100.00
8717;BME280;4395;48.554;8.820;2023-05-19T04:03:21;96282.13;;;9.49;100.00
8717;BME280;4395;48.554;8.820;2023-05-19T04:05:24;96286.38;;;10.54;100.00
8717;BME280;4395;48.554;8.820;2023-05-19T04:07:27;96281.66;;;11.72;100.00
8717;BME280;4395;48.554;8.820;2023-05-19T04:09:30;96282.72;;;10.77;100.00
8717;BME280;4395;48.554;8.820;2023-05-19T04:11:35;96281.97;;;10.65;100.00
8717;BME280;4395;48.554;8.820;2023-05-19T04:13:40;96288.41;;;10.63;100.00
8717;BME280;4395;48.554;8.820;2023-05-19T04:15:46;96287.34;;;10.65;100.00
8717;BME280;4395;48.554;8.820;2023-05-19T04:17:49;96280.50;;;10.90;100.00
8717;BME280;4395;48.554;8.820;2023-05-19T04:19:52;96283.91;;;11.19;100.00
8717;BME280;4395;48.554;8.820;2023-05-19T04:21:55;96288.16;;;11.15;100.00
8717;BME280;4395;48.554;8.820;2023-05-19T04:23:58;96284.34;;;11.11;100.00
8717;BME280;4395;48.554;8.820;2023-05-19T04:26:02;96282.34;;;11.40;100.00
8717;BME280;4395;48.554;8.820;2023-05-19T04:28:07;96283.38;;;10.84;100.00
8717;BME280;4395;48.554;8.820;2023-05-19T04:30:12;96280.53;;;10.17;100.00
8717;BME280;4395;48.554;8.820;2023-05-19T04:32:23;96287.75;;;10.28;100.00
8717;BME280;4395;48.554;8.820;2023-05-19T04:34:28;96264.75;;;9.92;100.00
8717;BME280;4395;48.554;8.820;2023-05-19T04:36:31;96281.56;;;10.27;100.00
8717;BME280;4395;48.554;8.820;2023-05-19T04:38:34;96282.88;;;10.25;100.00
8717;BME280;4395;48.554;8.820;2023-05-19T04:40:42;96281.91;;;10.31;100.00
8717;BME280;4395;48.554;8.820;2023-05-19T04:42:45;96177.25;;;9.51;100.00
8717;BME280;4395;48.554;8.820;2023-05-19T04:44:50;96283.22;;;10.17;100.00
8717;BME280;4395;48.554;8.820;2023-05-19T04:46:55;96276.59;;;10.08;100.00
8717;BME280;4395;48.554;8.820;2023-05-19T04:48:59;96256.66;;;10.04;100.00
8717;BME280;4395;48.554;8.820;2023-05-19T04:51:03;96266.53;;;9.86;100.00
8717;BME280;4395;48.554;8.820;2023-05-19T04:53:06;96288.28;;;10.02;100.00
8717;BME280;4395;48.554;8.820;2023-05-19T04:55:08;96284.75;;;10.13;100.00
8717;BME280;4395;48.554;8.820;2023-05-19T04:57:13;96192.41;;;9.85;100.00
8717;BME280;4395;48.554;8.820;2023-05-19T04:59:16;96276.78;;;10.18;100.00
8717;BME280;4395;48.554;8.820;2023-05-19T05:01:19;96281.72;;;10.21;100.00
8717;BME280;4395;48.554;8.820;2023-05-19T05:03:28;96263.97;;;10.20;100.00
8717;BME280;4395;48.554;8.820;2023-05-19T05:05:34;96279.59;;;10.23;100.00
8717;BME280;4395;48.554;8.820;2023-05-19T05:07:37;96277.34;;;10.31;100.00
8717;BME280;4395;48.554;8.820;2023-05-19T05:09:40;96270.97;;;10.21;100.00
8717;BME280;4395;48.554;8.820;2023-05-19T05:11:45;96273.66;;;10.21;100.00
8717;BME280;4395;48.554;8.820;2023-05-19T05:13:48;96273.94;;;10.36;100.00
8717;BME280;4395;48.554;8.820;2023-05-19T05:15:51;96273.13;;;10.36;100.00
8717;BME280;4395;48.554;8.820;2023-05-19T05:17:55;96274.00;;;10.24;100.00
8717;BME280;4395;48.554;8.820;2023-05-19T05:20:01;96273.44;;;10.39;100.00
8717;BME280;4395;48.554;8.820;2023-05-19T05:22:05;96274.88;;;10.58;100.00
8717;BME280;4395;48.554;8.820;2023-05-19T05:24:12;96274.81;;;10.53;100.00
8717;BME280;4395;48.554;8.820;2023-05-19T05:26:20;96195.28;;;9.67;100.00
8717;BME280;4395;48.554;8.820;2023-05-19T05:28:28;96280.66;;;10.22;100.00
8717;BME280;4395;48.554;8.820;2023-05-19T05:30:33;96271.41;;;10.18;100.00
8717;BME280;4395;48.554;8.820;2023-05-19T05:32:37;96272.03;;;10.20;100.00
8717;BME280;4395;48.554;8.820;2023-05-19T05:34:46;96184.03;;;9.53;100.00
8717;BME280;4395;48.554;8.820;2023-05-19T05:36:51;96279.97;;;10.15;100.00
8717;BME280;4395;48.554;8.820;2023-05-19T05:38:54;96215.22;;;9.99;100.00
8717;BME280;4395;48.554;8.820;2023-05-19T05:40:57;96242.59;;;10.13;100.00
8717;BME280;4395;48.554;8.820;2023-05-19T05:43:00;96251.00;;;10.45;100.00
8717;BME280;4395;48.554;8.820;2023-05-19T05:45:06;96290.59;;;10.67;100.00
8717;BME280;4395;48.554;8.820;2023-05-19T05:47:10;96289.78;;;10.49;100.00
8717;BME280;4395;48.554;8.820;2023-05-19T05:49:14;96283.44;;;10.55;100.00
8717;BME280;4395;48.554;8.820;2023-05-19T05:51:20;96290.19;;;10.58;100.00
8717;BME280;4395;48.554;8.820;2023-05-19T05:53:29;96291.59;;;10.60;100.00
8717;BME280;4395;48.554;8.820;2023-05-19T05:55:35;96252.47;;;10.53;100.00
8717;BME280;4395;48.554;8.820;2023-05-19T05:57:39;96297.59;;;10.51;100.00
8717;BME280;4395;48.554;8.820;2023-05-19T05:59:43;96291.25;;;10.57;100.00
8717;BME280;4395;48.554;8.820;2023-05-19T06:01:48;96288.97;;;10.49;100.00
8717;BME280;4395;48.554;8.820;2023-05-19T06:03:52;96284.59;;;10.31;100.00
8717;BME280;4395;48.554;8.820;2023-05-19T06:05:57;96287.50;;;10.29;100.00
8717;BME280;4395;48.554;8.820;2023-05-19T06:08:00;96296.28;;;10.25;100.00
8717;BME280;4395;48.554;8.820;2023-05-19T06:10:06;96291.22;;;10.40;100.00
8717;BME280;4395;48.554;8.820;2023-05-19T06:12:09;96289.78;;;10.66;100.00
8717;BME280;4395;48.554;8.820;2023-05-19T06:14:18;96287.59;;;10.80;100.00
8717;BME280;4395;48.554;8.820;2023-05-19T06:16:39;96279.84;;;11.00;100.00
8717;BME280;4395;48.554;8.820;2023-05-19T06:18:43;96020.69;;;9.57;100.00
8717;BME280;4395;48.554;8.820;2023-05-19T06:20:46;96237.81;;;10.94;100.00
8717;BME280;4395;48.554;8.820;2023-05-19T06:22:48;96286.81;;;11.35;100.00
8717;BME280;4395;48.554;8.820;2023-05-19T06:24:54;96291.75;;;11.21;100.00
8717;BME280;4395;48.554;8.820;2023-05-19T06:26:58;96286.25;;;11.33;100.00
8717;BME280;4395;48.554;8.820;2023-05-19T06:29:00;96288.59;;;11.46;100.00
8717;BME280;4395;48.554;8.820;2023-05-19T06:31:03;96279.16;;;11.65;100.00
8717;BME280;4395;48.554;8.820;2023-05-19T06:33:20;96281.63;;;11.88;100.00
8717;BME280;4395;48.554;8.820;2023-05-19T06:35:23;96288.91;;;11.49;100.00
8717;BME280;4395;48.554;8.820;2023-05-19T06:37:26;96291.41;;;11.95;100.00
8717;BME280;4395;48.554;8.820;2023-05-19T06:39:29;96282.91;;;12.30;100.00
8717;BME280;4395;48.554;8.820;2023-05-19T06:41:34;96270.00;;;12.32;100.00
8717;BME280;4395;48.554;8.820;2023-05-19T06:43:38;96302.03;;;12.28;100.00
8717;BME280;4395;48.554;8.820;2023-05-19T06:45:42;96175.44;;;11.79;100.00
8717;BME280;4395;48.554;8.820;2023-05-19T06:47:45;96290.06;;;12.73;100.00
8717;BME280;4395;48.554;8.820;2023-05-19T06:49:48;96295.25;;;12.79;100.00
8717;BME280;4395;48.554;8.820;2023-05-19T06:51:59;96284.59;;;12.95;99.62
8717;BME280;4395;48.554;8.820;2023-05-19T06:54:01;96260.34;;;12.68;100.00
8717;BME280;4395;48.554;8.820;2023-05-19T06:56:05;96289.78;;;13.01;100.00
8717;BME280;4395;48.554;8.820;2023-05-19T06:58:10;96194.44;;;12.53;99.46
8717;BME280;4395;48.554;8.820;2023-05-19T07:00:15;96298.47;;;13.08;100.00
8717;BME280;4395;48.554;8.820;2023-05-19T07:02:24;96289.69;;;13.18;100.00
8717;BME280;4395;48.554;8.820;2023-05-19T07:04:27;96296.84;;;13.39;98.69
8717;BME280;4395;48.554;8.820;2023-05-19T07:06:30;96289.28;;;13.41;97.09
8717;BME280;4395;48.554;8.820;2023-05-19T07:08:34;96285.09;;;13.18;97.26
8717;BME280;4395;48.554;8.820;2023-05-19T07:10:39;96279.59;;;13.08;96.59
8717;BME280;4395;48.554;8.820;2023-05-19T07:12:46;96283.56;;;13.33;97.49
8717;BME280;4395;48.554;8.820;2023-05-19T07:14:51;96286.44;;;13.63;95.40
8717;BME280;4395;48.554;8.820;2023-05-19T07:16:55;96287.56;;;13.67;95.73
8717;BME280;4395;48.554;8.820;2023-05-19T07:18:58;96227.03;;;13.16;96.38
8717;BME280;4395;48.554;8.820;2023-05-19T07:21:01;96282.16;;;13.67;94.95
8717;BME280;4395;48.554;8.820;2023-05-19T07:23:05;96276.63;;;13.47;96.24
8717;BME280;4395;48.554;8.820;2023-05-19T07:25:09;96178.72;;;13.14;95.61
8717;BME280;4395;48.554;8.820;2023-05-19T07:27:13;96282.16;;;13.67;94.28
8717;BME280;4395;48.554;8.820;2023-05-19T07:29:16;96276.81;;;13.77;94.52
8717;BME280;4395;48.554;8.820;2023-05-19T07:31:19;96283.03;;;13.83;95.35
8717;BME280;4395;48.554;8.820;2023-05-19T07:33:23;96290.41;;;13.98;93.99
8717;BME280;4395;48.554;8.820;2023-05-19T07:35:27;96280.63;;;13.87;94.11
8717;BME280;4395;48.554;8.820;2023-05-19T07:37:30;96288.22;;;13.95;93.42
8717;BME280;4395;48.554;8.820;2023-05-19T07:39:34;96272.50;;;13.87;91.78
8717;BME280;4395;48.554;8.820;2023-05-19T07:41:37;96275.50;;;13.90;91.09
8717;BME280;4395;48.554;8.820;2023-05-19T07:43:39;96275.53;;;13.95;90.70
8717;BME280;4395;48.554;8.820;2023-05-19T07:45:42;96282.53;;;13.91;91.94
8717;BME280;4395;48.554;8.820;2023-05-19T07:47:45;96284.88;;;13.72;92.84
8717;BME280;4395;48.554;8.820;2023-05-19T07:49:49;96291.31;;;13.66;93.98
8717;BME280;4395;48.554;8.820;2023-05-19T07:51:52;96286.41;;;13.53;94.48
8717;BME280;4395;48.554;8.820;2023-05-19T07:53:55;96285.28;;;13.49;96.03
8717;BME280;4395;48.554;8.820;2023-05-19T07:55:58;96256.09;;;13.41;96.96
8717;BME280;4395;48.554;8.820;2023-05-19T07:58:01;96283.72;;;13.58;96.68
8717;BME280;4395;48.554;8.820;2023-05-19T08:00:05;96277.78;;;13.56;96.42
8717;BME280;4395;48.554;8.820;2023-05-19T08:02:15;96278.25;;;13.48;97.51
8717;BME280;4395;48.554;8.820;2023-05-19T08:04:18;96234.75;;;13.02;98.67
8717;BME280;4395;48.554;8.820;2023-05-19T08:06:22;96276.50;;;13.27;98.64
8717;BME280;4395;48.554;8.820;2023-05-19T08:08:25;96277.75;;;13.14;100.00
8717;BME280;4395;48.554;8.820;2023-05-19T08:10:28;96274.94;;;13.31;99.45
8717;BME280;4395;48.554;8.820;2023-05-19T08:12:32;96272.97;;;13.21;99.10
8717;BME280;4395;48.554;8.820;2023-05-19T08:14:34;96274.22;;;13.13;99.18
8717;BME280;4395;48.554;8.820;2023-05-19T08:16:37;96269.50;;;13.26;99.01
8717;BME280;4395;48.554;8.820;2023-05-19T08:18:42;96274.84;;;13.21;100.00
8717;BME280;4395;48.554;8.820;2023-05-19T08:20:45;96267.06;;;13.24;99.35
8717;BME280;4395;48.554;8.820;2023-05-19T08:22:49;96274.41;;;13.34;98.78
8717;BME280;4395;48.554;8.820;2023-05-19T08:24:52;96267.53;;;13.58;98.06
8717;BME280;4395;48.554;8.820;2023-05-19T08:26:54;96265.91;;;13.57;97.34
8717;BME280;4395;48.554;8.820;2023-05-19T08:28:57;96263.44;;;13.50;97.85
8717;BME280;4395;48.554;8.820;2023-05-19T08:31:00;96260.22;;;13.59;97.08
8717;BME280;4395;48.554;8.820;2023-05-19T08:33:03;96265.91;;;13.57;93.81
8717;BME280;4395;48.554;8.820;2023-05-19T08:35:07;96255.09;;;13.57;95.43
8717;BME280;4395;48.554;8.820;2023-05-19T08:37:10;96257.84;;;13.67;93.77
8717;BME280;4395;48.554;8.820;2023-05-19T08:39:15;96256.78;;;13.68;94.60
8717;BME280;4395;48.554;8.820;2023-05-19T08:41:20;96253.78;;;13.65;95.87
8717;BME280;4395;48.554;8.820;2023-05-19T08:43:23;96249.50;;;13.74;96.27
8717;BME280;4395;48.554;8.820;2023-05-19T08:45:26;96248.72;;;13.83;95.25
8717;BME280;4395;48.554;8.820;2023-05-19T08:47:31;96247.66;;;13.84;91.37
8717;BME280;4395;48.554;8.820;2023-05-19T08:49:42;96241.47;;;13.89;90.76
8717;BME280;4395;48.554;8.820;2023-05-19T08:51:49;96256.31;;;13.87;90.62
8717;BME280;4395;48.554;8.820;2023-05-19T08:54:03;96243.94;;;14.01;91.03
8717;BME280;4395;48.554;8.820;2023-05-19T08:56:15;96235.34;;;14.19;88.34
8717;BME280;4395;48.554;8.820;2023-05-19T08:58:18;96156.81;;;13.58;88.25
8717;BME280;4395;48.554;8.820;2023-05-19T09:00:22;96242.91;;;14.22;87.80
8717;BME280;4395;48.554;8.820;2023-05-19T09:02:26;96239.19;;;14.43;87.72
8717;BME280;4395;48.554;8.820;2023-05-19T09:04:29;96241.31;;;14.36;86.47
8717;BME280;4395;48.554;8.820;2023-05-19T09:06:33;96242.16;;;14.42;84.55
8717;BME280;4395;48.554;8.820;2023-05-19T09:08:36;96235.97;;;14.52;84.04
8717;BME280;4395;48.554;8.820;2023-05-19T09:10:39;96245.69;;;14.53;83.56
8717;BME280;4395;48.554;8.820;2023-05-19T09:12:45;96206.44;;;14.35;84.36
8717;BME280;4395;48.554;8.820;2023-05-19T09:14:49;96239.75;;;14.45;85.76
8717;BME280;4395;48.554;8.820;2023-05-19T09:16:52;96240.31;;;14.68;84.27
8717;BME280;4395;48.554;8.820;2023-05-19T09:18:56;96243.00;;;14.63;82.51
8717;BME280;4395;48.554;8.820;2023-05-19T09:21:01;96201.88;;;14.45;82.75
8717;BME280;4395;48.554;8.820;2023-05-19T09:23:04;96248.97;;;14.70;83.08
8717;BME280;4395;48.554;8.820;2023-05-19T09:25:17;96135.31;;;14.04;83.99
8717;BME280;4395;48.554;8.820;2023-05-19T09:27:20;96248.41;;;14.63;85.44
8717;BME280;4395;48.554;8.820;2023-05-19T09:29:25;96244.06;;;14.52;85.82
8717;BME280;4395;48.554;8.820;2023-05-19T09:31:31;96249.47;;;14.46;86.49
8717;BME280;4395;48.554;8.820;2023-05-19T09:33:35;96230.72;;;14.09;86.85
8717;BME280;4395;48.554;8.820;2023-05-19T09:35:38;96122.28;;;13.75;85.76
8717;BME280;4395;48.554;8.820;2023-05-19T09:37:41;96240.50;;;14.36;87.39
8717;BME280;4395;48.554;8.820;2023-05-19T09:39:45;96233.75;;;14.38;86.62
8717;BME280;4395;48.554;8.820;2023-05-19T09:41:50;96235.91;;;14.31;85.96
8717;BME280;4395;48.554;8.820;2023-05-19T09:43:53;96237.00;;;14.35;87.44
8717;BME280;4395;48.554;8.820;2023-05-19T09:45:59;96231.03;;;14.38;85.67
8717;BME280;4395;48.554;8.820;2023-05-19T09:48:05;96232.97;;;14.48;84.29
8717;BME280;4395;48.554;8.820;2023-05-19T09:50:10;96237.81;;;14.41;85.36
8717;BME280;4395;48.554;8.820;2023-05-19T09:52:14;96234.00;;;14.27;85.32
8717;BME280;4395;48.554;8.820;2023-05-19T09:54:19;96232.16;;;14.42;85.84
8717;BME280;4395;48.554;8.820;2023-05-19T09:56:22;96235.97;;;14.62;85.41
8717;BME280;4395;48.554;8.820;2023-05-19T09:58:25;96227.31;;;14.60;82.16
8717;BME280;4395;48.554;8.820;2023-05-19T10:00:29;96235.44;;;14.70;83.48
8717;BME280;4395;48.554;8.820;2023-05-19T10:02:36;96234.63;;;14.79;82.41
8717;BME280;4395;48.554;8.820;2023-05-19T10:04:42;96243.56;;;14.85;81.54
8717;BME280;4395;48.554;8.820;2023-05-19T10:06:47;96233.81;;;14.79;81.97
8717;BME280;4395;48.554;8.820;2023-05-19T10:08:54;96235.16;;;14.76;82.08
8717;BME280;4395;48.554;8.820;2023-05-19T10:10:57;96230.03;;;14.85;80.29
8717;BME280;4395;48.554;8.820;2023-05-19T10:13:01;96239.75;;;15.06;79.40
8717;BME280;4395;48.554;8.820;2023-05-19T10:15:06;96166.44;;;14.67;80.24
8717;BME280;4395;48.554;8.820;2023-05-19T10:17:11;96229.75;;;14.71;83.45
8717;BME280;4395;48.554;8.820;2023-05-19T10:19:18;96232.47;;;14.71;83.34
8717;BME280;4395;48.554;8.820;2023-05-19T10:21:22;96226.78;;;14.58;84.14
8717;BME280;4395;48.554;8.820;2023-05-19T10:23:25;96225.97;;;14.88;83.62
8717;BME280;4395;48.554;8.820;2023-05-19T10:25:29;96079.66;;;14.03;79.91
8717;BME280;4395;48.554;8.820;2023-05-19T10:27:34;96234.88;;;14.73;81.44
8717;BME280;4395;48.554;8.820;2023-05-19T10:29:41;96229.75;;;14.76;83.64
8717;BME280;4395;48.554;8.820;2023-05-19T10:31:49;96233.25;;;14.92;81.91
8717;BME280;4395;48.554;8.820;2023-05-19T10:34:06;96196.19;;;14.83;78.12
8717;BME280;4395;48.554;8.820;2023-05-19T10:36:33;96240.84;;;14.95;79.30
8717;BME280;4395;48.554;8.820;2023-05-19T10:38:46;96237.06;;;14.96;79.46
8717;BME280;4395;48.554;8.820;2023-05-19T10:40:55;96203.25;;;14.68;81.04
8717;BME280;4395;48.554;8.820;2023-05-19T10:43:14;96238.69;;;14.82;81.32
8717;BME280;4395;48.554;8.820;2023-05-19T10:45:20;96235.44;;;14.80;82.68
8717;BME280;4395;48.554;8.820;2023-05-19T10:47:24;96231.63;;;14.45;82.65
8717;BME280;4395;48.554;8.820;2023-05-19T10:49:27;96236.78;;;14.62;83.10
8717;BME280;4395;48.554;8.820;2023-05-19T10:51:32;96246.78;;;14.46;82.93
8717;BME280;4395;48.554;8.820;2023-05-19T10:53:40;96240.84;;;14.70;81.66
8717;BME280;4395;48.554;8.820;2023-05-19T10:55:50;96229.22;;;14.79;82.58
8717;BME280;4395;48.554;8.820;2023-05-19T10:57:56;96238.94;;;14.75;80.83
8717;BME280;4395;48.554;8.820;2023-05-19T11:00:02;96229.47;;;14.73;81.81
8717;BME280;4395;48.554;8.820;2023-05-19T11:02:36;96240.84;;;14.60;81.78
8717;BME280;4395;48.554;8.820;2023-05-19T11:04:47;96241.34;;;14.46;82.52
8717;BME280;4395;48.554;8.820;2023-05-19T11:06:53;96235.63;;;14.28;83.54
8717;BME280;4395;48.554;8.820;2023-05-19T11:08:59;96209.38;;;14.13;84.12
8717;BME280;4395;48.554;8.820;2023-05-19T11:11:11;96234.78;;;14.12;85.78
8717;BME280;4395;48.554;8.820;2023-05-19T11:13:18;96233.19;;;14.26;85.07
8717;BME280;4395;48.554;8.820;2023-05-19T11:15:25;96231.03;;;14.38;84.84
8717;BME280;4395;48.554;8.820;2023-05-19T11:17:28;96242.41;;;14.35;85.31
8717;BME280;4395;48.554;8.820;2023-05-19T11:19:34;96242.66;;;14.39;85.00
8717;BME280;4395;48.554;8.820;2023-05-19T11:21:41;96239.75;;;14.56;85.71